Pentress, West Virginia
Current Conditions -  °F | °C
As of 3:33 AM on Tuesday 21 Oct 2014 (Local Time) from KMGW Reporting Station
Overcast Overcast  
Wind Chill: 53°   Ceiling: 3200
Heat Index: 53°   Visibility: 10mi
Dew Point: 47°   Wind: 5mph
Humidity: 80%   Direction: 190°S
Pressure: 29.88"   Gusts: NA
Location:  39.71°N, 80.16°W
Report Text: KMGW 210733Z AUTO 19004KT 10SM FEW024 BKN032 OVC041 12/08 A2988 RMK AO2 T01170083 TSNO
Loading
Personal Weather Stations






























Interactive Weather Map
Tropical Storm Tracking
New forecast layout! Learn more

10-Day Weather Forecast

Advertisements
Track Severe Weather on mobile